Time;durP1;ratioP1;P1;durP2;ratioP2;P2;SDS_P1;SDS_P2;PMS_P1;PMS_P2;Temp;Humidity;BMP_temperature;BMP_pressure;BME280_temperature;BME280_humidity;BME280_pressure;Samples;Min_cycle;Max_cycle;Signal;HPM_P1;HPM_P2
2021/07/27 00:02:18;;;;;;;8.30;7.43;;;20.10;99.90;;;;;;5089083;28;20385;-82
2021/07/27 00:04:43;;;;;;;8.30;6.65;;;20.00;99.90;;;;;;5086989;28;20035;-82
2021/07/27 00:07:09;;;;;;;8.32;7.10;;;20.00;99.90;;;;;;5074990;28;20472;-82
2021/07/27 00:09:34;;;;;;;8.20;6.88;;;19.90;99.90;;;;;;5078216;28;20032;-82
2021/07/27 00:12:00;;;;;;;8.10;7.00;;;19.90;99.90;;;;;;5085052;28;20055;-82
2021/07/27 00:14:26;;;;;;;8.52;6.32;;;19.90;99.90;;;;;;5083994;28;20111;-82
2021/07/27 00:16:51;;;;;;;9.65;7.65;;;19.80;99.90;;;;;;5089097;28;20042;-82
2021/07/27 00:19:17;;;;;;;8.27;7.00;;;20.00;99.90;;;;;;5089478;28;20464;-82
2021/07/27 00:21:43;;;;;;;11.43;6.95;;;19.90;99.90;;;;;;5094682;28;20587;-82
2021/07/27 00:24:08;;;;;;;10.52;7.15;;;19.80;99.90;;;;;;5086098;28;20081;-82
2021/07/27 00:26:34;;;;;;;8.95;6.72;;;19.70;99.90;;;;;;5076578;28;20395;-82
2021/07/27 00:29:00;;;;;;;7.63;6.90;;;19.70;99.90;;;;;;5076566;28;20039;-82
2021/07/27 00:31:28;;;;;;;8.27;6.35;;;19.60;99.90;;;;;;5089010;28;20025;-82
2021/07/27 00:33:54;;;;;;;7.50;6.68;;;19.70;99.90;;;;;;5080599;28;20416;-82
2021/07/27 00:36:20;;;;;;;8.40;7.25;;;19.70;99.90;;;;;;5088260;28;20031;-82
2021/07/27 00:38:45;;;;;;;9.52;7.00;;;19.70;99.90;;;;;;5081033;28;20032;-82
2021/07/27 00:41:11;;;;;;;8.27;6.93;;;19.60;99.90;;;;;;5078947;28;20028;-82
2021/07/27 00:43:37;;;;;;;9.45;7.20;;;19.60;99.90;;;;;;5090439;28;20031;-82
2021/07/27 00:46:03;;;;;;;8.70;6.55;;;19.60;99.90;;;;;;5074818;28;20143;-82
2021/07/27 00:48:28;;;;;;;8.35;6.72;;;19.50;99.90;;;;;;5089883;28;20039;-82
2021/07/27 00:50:54;;;;;;;8.85;6.63;;;19.50;99.90;;;;;;5086640;28;20050;-82
2021/07/27 00:53:21;;;;;;;10.73;6.88;;;19.50;99.90;;;;;;5088088;28;20071;-82
2021/07/27 00:55:48;;;;;;;7.75;6.88;;;19.50;99.90;;;;;;5078926;28;20024;-82
2021/07/27 00:58:14;;;;;;;8.18;6.57;;;19.50;99.90;;;;;;5090184;28;20368;-82
2021/07/27 01:00:39;;;;;;;7.50;6.70;;;19.40;99.90;;;;;;5091403;28;20027;-82
2021/07/27 01:03:05;;;;;;;9.05;6.57;;;19.50;99.90;;;;;;5087390;28;20028;-83
2021/07/27 01:05:31;;;;;;;8.82;7.00;;;19.50;99.90;;;;;;5068408;28;20024;-82
2021/07/27 01:08:00;;;;;;;9.55;6.30;;;19.40;99.90;;;;;;5086643;28;20082;-81
2021/07/27 01:10:25;;;;;;;10.10;7.30;;;19.30;99.90;;;;;;5056731;28;20032;-82
2021/07/27 01:12:51;;;;;;;10.45;7.07;;;19.20;99.90;;;;;;5089048;28;20037;-82
2021/07/27 01:15:17;;;;;;;11.90;6.65;;;19.20;99.90;;;;;;5082977;28;20483;-82
2021/07/27 01:17:43;;;;;;;8.05;6.93;;;19.20;99.90;;;;;;5086927;28;20081;-82
2021/07/27 01:44:28;;;;;;;9.20;6.97;;;19.00;99.90;;;;;;5082304;28;20055;-82
2021/07/27 01:46:54;;;;;;;8.63;6.60;;;18.90;99.90;;;;;;5074962;28;20048;-82
2021/07/27 01:49:20;;;;;;;7.28;6.20;;;18.80;99.90;;;;;;5087576;28;20090;-82
2021/07/27 01:51:46;;;;;;;7.90;6.47;;;18.80;99.90;;;;;;5092370;28;20024;-82
2021/07/27 01:54:15;;;;;;;9.98;7.03;;;18.90;99.90;;;;;;5058883;28;20040;-82
2021/07/27 01:56:42;;;;;;;8.95;6.47;;;18.80;99.90;;;;;;5080141;28;20024;-82
2021/07/27 01:59:10;;;;;;;10.57;6.93;;;18.70;99.90;;;;;;5085562;28;20119;-82
2021/07/27 02:01:38;;;;;;;9.02;7.00;;;18.70;99.90;;;;;;5086552;28;20082;-82
2021/07/27 02:04:04;;;;;;;8.80;6.70;;;18.60;99.90;;;;;;5083485;28;20119;-82
2021/07/27 02:06:29;;;;;;;10.20;6.53;;;18.60;99.90;;;;;;5088968;28;20567;-81
2021/07/27 02:08:56;;;;;;;7.43;6.70;;;18.60;99.90;;;;;;5079479;28;20021;-82
2021/07/27 02:11:26;;;;;;;10.38;7.22;;;18.60;99.90;;;;;;5078373;28;20020;-82
2021/07/27 02:13:54;;;;;;;7.75;6.93;;;18.70;99.90;;;;;;5085866;28;20457;-82
2021/07/27 02:16:20;;;;;;;9.18;7.03;;;18.70;99.90;;;;;;5087458;28;20505;-82
2021/07/27 02:18:46;;;;;;;9.68;6.88;;;18.50;99.90;;;;;;5090086;28;20039;-82
2021/07/27 02:21:12;;;;;;;8.63;6.60;;;18.50;99.90;;;;;;5057260;28;20024;-82
2021/07/27 02:23:37;;;;;;;8.55;6.75;;;18.60;99.90;;;;;;5056895;28;20511;-82
2021/07/27 02:26:04;;;;;;;8.73;6.53;;;18.60;99.90;;;;;;5075089;28;20027;-82
2021/07/27 02:28:33;;;;;;;9.20;6.65;;;18.40;99.90;;;;;;5085137;28;20027;-82
2021/07/27 02:31:01;;;;;;;7.40;6.70;;;18.30;1.00;;;;;;5092019;28;20050;-82
2021/07/27 02:33:28;;;;;;;10.18;7.32;;;18.40;1.00;;;;;;5082773;28;20043;-82
2021/07/27 02:35:54;;;;;;;9.95;7.45;;;18.40;1.00;;;;;;5081257;28;20026;-82
2021/07/27 02:38:19;;;;;;;8.95;7.32;;;18.50;1.00;;;;;;5084462;28;20040;-82
2021/07/27 02:40:45;;;;;;;9.35;7.10;;;18.50;1.00;;;;;;5086148;28;20025;-82
2021/07/27 02:43:11;;;;;;;7.95;7.15;;;18.40;1.00;;;;;;5073326;28;20461;-82
2021/07/27 02:45:37;;;;;;;8.70;7.35;;;18.40;99.90;;;;;;5057985;28;20091;-82
2021/07/27 02:48:04;;;;;;;9.68;6.82;;;18.40;1.00;;;;;;5083630;28;20105;-82
2021/07/27 02:50:29;;;;;;;8.88;7.05;;;18.30;1.00;;;;;;5079603;28;20074;-82
2021/07/27 02:52:56;;;;;;;9.63;7.00;;;18.30;1.00;;;;;;5084472;28;20040;-82
2021/07/27 02:55:21;;;;;;;8.43;7.35;;;18.30;1.00;;;;;;5085533;28;20404;-82
2021/07/27 02:57:48;;;;;;;12.32;7.30;;;18.30;1.00;;;;;;5091397;28;20085;-81
2021/07/27 03:00:15;;;;;;;9.23;7.47;;;18.20;1.00;;;;;;5076160;28;20051;-81
2021/07/27 03:02:44;;;;;;;10.45;7.47;;;18.10;1.00;;;;;;5079728;28;20035;-82
2021/07/27 03:05:15;;;;;;;8.52;6.82;;;18.10;1.00;;;;;;5084439;28;20020;-82
2021/07/27 03:10:17;;;;;;;8.57;6.93;;;18.20;1.00;;;;;;5080800;28;20028;-82
2021/07/27 03:12:43;;;;;;;11.93;7.72;;;18.10;1.00;;;;;;5089901;28;20032;-82
2021/07/27 03:15:11;;;;;;;9.73;7.47;;;18.10;1.00;;;;;;5069358;22;20140;-81
2021/07/27 03:17:37;;;;;;;10.95;7.40;;;18.00;1.00;;;;;;5052387;28;20175;-81
2021/07/27 03:20:07;;;;;;;9.43;7.05;;;18.00;1.00;;;;;;5053570;28;20083;-81
2021/07/27 03:22:33;;;;;;;8.68;7.15;;;17.90;1.00;;;;;;5050282;28;20029;-81
2021/07/27 03:24:59;;;;;;;10.07;7.38;;;17.80;1.00;;;;;;5036753;28;20037;-81
2021/07/27 03:27:24;;;;;;;9.25;7.10;;;17.90;1.00;;;;;;5052654;28;20496;-81
2021/07/27 03:29:50;;;;;;;9.10;7.55;;;18.00;1.00;;;;;;5054001;28;20175;-81
2021/07/27 03:32:15;;;;;;;10.38;7.38;;;17.90;1.00;;;;;;5053970;28;20029;-81
2021/07/27 03:34:42;;;;;;;15.50;8.15;;;17.90;1.00;;;;;;5051278;28;20038;-81
2021/07/27 03:37:10;;;;;;;8.02;7.20;;;17.90;1.00;;;;;;5052734;28;20021;-81
2021/07/27 03:39:36;;;;;;;8.13;6.90;;;17.90;1.00;;;;;;5050669;28;20519;-81
2021/07/27 03:42:02;;;;;;;9.65;7.30;;;17.90;1.00;;;;;;5053389;28;20096;-80
2021/07/27 03:44:28;;;;;;;9.50;7.65;;;17.80;1.00;;;;;;5050218;28;20029;-81
2021/07/27 03:46:53;;;;;;;12.00;7.95;;;17.80;1.00;;;;;;5052670;28;20094;-81
2021/07/27 03:49:20;;;;;;;10.05;7.18;;;17.80;1.00;;;;;;5049599;28;20379;-81
2021/07/27 03:51:46;;;;;;;8.48;7.50;;;17.80;1.00;;;;;;5054813;28;20088;-81
2021/07/27 03:54:11;;;;;;;9.82;7.95;;;17.80;1.00;;;;;;5051653;28;20120;-81
2021/07/27 03:56:40;;;;;;;11.80;7.82;;;17.80;1.00;;;;;;5051760;28;20048;-81
2021/07/27 03:59:05;;;;;;;10.98;7.47;;;17.70;1.00;;;;;;5054119;28;20033;-81
2021/07/27 04:01:31;;;;;;;8.07;7.28;;;17.70;1.00;;;;;;5049400;28;20060;-81
2021/07/27 04:03:57;;;;;;;7.93;7.13;;;17.80;1.00;;;;;;5054816;28;20418;-81
2021/07/27 04:06:22;;;;;;;9.88;7.90;;;17.70;1.00;;;;;;5052570;28;20059;-81
2021/07/27 04:08:48;;;;;;;12.25;7.68;;;17.70;1.00;;;;;;5052850;28;20021;-81
2021/07/27 04:11:15;;;;;;;8.85;7.65;;;17.80;1.00;;;;;;5052059;28;20025;-81
2021/07/27 04:13:40;;;;;;;8.80;7.82;;;17.90;1.00;;;;;;5046208;28;20493;-81
2021/07/27 04:16:06;;;;;;;8.63;7.47;;;17.90;1.00;;;;;;5053280;28;20028;-81
2021/07/27 04:18:32;;;;;;;10.95;7.85;;;17.90;1.00;;;;;;5054999;28;20173;-81
2021/07/27 04:20:58;;;;;;;10.38;7.50;;;17.90;1.00;;;;;;5053024;28;20025;-81
2021/07/27 04:23:24;;;;;;;11.57;8.10;;;17.90;1.00;;;;;;5052985;28;20052;-81
2021/07/27 04:25:50;;;;;;;9.68;7.90;;;17.70;1.00;;;;;;5034026;28;20031;-81
2021/07/27 04:28:15;;;;;;;12.93;8.30;;;17.70;1.00;;;;;;5049886;28;20033;-81
2021/07/27 04:30:41;;;;;;;9.23;7.32;;;17.80;1.00;;;;;;5055435;28;20055;-81
2021/07/27 04:33:06;;;;;;;10.07;7.22;;;17.80;1.00;;;;;;5052678;28;20496;-81
2021/07/27 04:35:32;;;;;;;14.50;8.20;;;17.90;1.00;;;;;;5053061;28;20017;-81
2021/07/27 04:37:58;;;;;;;8.48;7.22;;;18.00;1.00;;;;;;5052748;28;20032;-81
2021/07/27 04:40:24;;;;;;;8.85;7.32;;;18.10;1.00;;;;;;5053179;28;20501;-81
2021/07/27 04:42:50;;;;;;;10.38;6.88;;;17.90;1.00;;;;;;5058964;28;20025;-81
2021/07/27 04:45:16;;;;;;;10.32;8.15;;;17.90;1.00;;;;;;5056666;28;20044;-81
2021/07/27 04:47:41;;;;;;;13.80;8.35;;;17.90;1.00;;;;;;5056519;28;20083;-80
2021/07/27 04:50:08;;;;;;;10.95;7.72;;;17.90;1.00;;;;;;5056789;28;20517;-81
2021/07/27 04:52:35;;;;;;;10.05;7.68;;;17.90;1.00;;;;;;5052136;28;20083;-80
2021/07/27 04:55:01;;;;;;;8.45;7.28;;;18.00;1.00;;;;;;5056698;28;20039;-81
2021/07/27 04:57:26;;;;;;;10.45;7.60;;;18.00;1.00;;;;;;5057406;28;20021;-82
2021/07/27 04:59:52;;;;;;;12.93;8.27;;;18.10;1.00;;;;;;5056508;28;20071;-81
2021/07/27 05:02:17;;;;;;;11.43;8.00;;;18.10;1.00;;;;;;5056379;28;20415;-80
2021/07/27 05:04:46;;;;;;;9.40;7.45;;;18.10;1.00;;;;;;5054404;28;20029;-82
2021/07/27 05:07:12;;;;;;;11.00;7.97;;;18.20;1.00;;;;;;5053847;28;20484;-80
2021/07/27 05:09:38;;;;;;;9.60;7.90;;;18.20;1.00;;;;;;5055789;28;20108;-81
2021/07/27 05:12:04;;;;;;;11.63;8.48;;;18.20;1.00;;;;;;5054649;28;20423;-81
2021/07/27 05:14:30;;;;;;;9.93;8.10;;;18.30;1.00;;;;;;5054622;28;20067;-81
2021/07/27 05:17:04;;;;;;;9.85;8.10;;;18.30;1.00;;;;;;5055409;28;20520;-80
2021/07/27 05:19:31;;;;;;;12.60;8.38;;;18.50;1.00;;;;;;5037156;28;20453;-80
2021/07/27 05:21:57;;;;;;;17.02;8.23;;;18.40;1.00;;;;;;5058086;28;20029;-80
2021/07/27 05:24:22;;;;;;;14.55;8.35;;;18.40;1.00;;;;;;5055440;28;20190;-80
2021/07/27 05:26:48;;;;;;;14.63;7.75;;;18.50;1.00;;;;;;5056098;28;20031;-79
2021/07/27 05:29:16;;;;;;;12.57;8.13;;;18.50;1.00;;;;;;5056270;28;20020;-80
2021/07/27 05:31:42;;;;;;;9.07;8.10;;;18.50;1.00;;;;;;5052448;28;20032;-80
2021/07/27 05:34:08;;;;;;;10.32;8.05;;;18.60;1.00;;;;;;5054660;28;20386;-80
2021/07/27 05:36:35;;;;;;;11.18;7.20;;;18.60;1.00;;;;;;5057097;28;20590;-80
2021/07/27 05:39:01;;;;;;;9.73;7.43;;;18.60;1.00;;;;;;5055652;28;20464;-80
2021/07/27 05:41:27;;;;;;;10.57;7.68;;;18.70;1.00;;;;;;5055860;28;20105;-80
2021/07/27 05:43:53;;;;;;;9.13;7.18;;;18.70;1.00;;;;;;5054271;28;20060;-80
2021/07/27 05:46:18;;;;;;;10.65;7.40;;;18.70;1.00;;;;;;5033986;28;20059;-80
2021/07/27 05:48:46;;;;;;;8.98;7.43;;;18.70;1.00;;;;;;5054658;28;20040;-80
2021/07/27 05:51:14;;;;;;;10.32;7.55;;;18.70;1.00;;;;;;5048225;28;20537;-80
2021/07/27 05:53:41;;;;;;;9.10;7.13;;;18.70;1.00;;;;;;5054874;28;20033;-80
2021/07/27 05:56:07;;;;;;;12.77;7.00;;;18.80;1.00;;;;;;5055786;28;20468;-81
2021/07/27 05:58:33;;;;;;;10.88;8.20;;;18.90;1.00;;;;;;5051772;28;20087;-80
2021/07/27 06:00:58;;;;;;;10.57;7.72;;;19.10;1.00;;;;;;5055970;28;20021;-80
2021/07/27 06:03:24;;;;;;;9.30;7.68;;;19.20;1.00;;;;;;5055463;28;20090;-80
2021/07/27 06:05:52;;;;;;;8.50;7.20;;;19.50;99.90;;;;;;5055126;28;20021;-81
2021/07/27 06:08:18;;;;;;;12.10;7.60;;;19.60;1.00;;;;;;5054492;28;20044;-80
2021/07/27 06:10:44;;;;;;;12.63;7.90;;;19.80;1.00;;;;;;5053265;28;20036;-79
2021/07/27 06:13:09;;;;;;;11.63;7.63;;;19.90;99.90;;;;;;5035459;28;20087;-80
2021/07/27 06:15:35;;;;;;;11.35;7.63;;;20.00;99.90;;;;;;5038164;28;20048;-80
2021/07/27 06:18:00;;;;;;;10.88;7.22;;;20.10;1.00;;;;;;5055190;28;20033;-80
2021/07/27 06:20:26;;;;;;;11.70;7.93;;;20.30;99.90;;;;;;5055039;28;20024;-80
2021/07/27 06:22:52;;;;;;;9.50;7.85;;;20.50;99.90;;;;;;5052919;28;20039;-80
2021/07/27 06:25:17;;;;;;;11.10;8.30;;;20.60;99.90;;;;;;5051800;28;20029;-80
2021/07/27 06:27:43;;;;;;;11.13;8.75;;;20.40;99.90;;;;;;5057087;28;20037;-80
2021/07/27 06:30:10;;;;;;;11.00;7.60;;;20.10;99.90;;;;;;5035730;28;20025;-82
2021/07/27 06:32:36;;;;;;;12.50;7.78;;;20.10;99.90;;;;;;5053932;28;20120;-82
2021/07/27 06:35:02;;;;;;;11.45;8.00;;;20.10;99.90;;;;;;5054112;28;20119;-82
2021/07/27 06:37:28;;;;;;;11.32;8.35;;;20.40;99.90;;;;;;5050444;28;20021;-82
2021/07/27 06:39:53;;;;;;;12.25;8.05;;;20.60;99.90;;;;;;5057196;28;20111;-83
2021/07/27 06:42:19;;;;;;;12.75;8.20;;;20.70;99.90;;;;;;5054441;28;20116;-80
2021/07/27 06:44:44;;;;;;;15.95;8.98;;;20.70;99.90;;;;;;5054351;28;20071;-81
2021/07/27 06:47:10;;;;;;;10.20;8.30;;;20.50;99.90;;;;;;5054952;28;20087;-80
2021/07/27 06:49:36;;;;;;;20.42;10.10;;;20.50;99.90;;;;;;5050654;28;20021;-81
2021/07/27 06:52:02;;;;;;;12.73;8.70;;;20.70;99.90;;;;;;5054700;28;20033;-80
2021/07/27 06:54:27;;;;;;;12.38;8.68;;;21.00;99.90;;;;;;5053621;28;20033;-81
2021/07/27 06:56:56;;;;;;;9.73;8.25;;;21.20;99.90;;;;;;5054773;28;20055;-80
2021/07/27 06:59:23;;;;;;;10.73;8.88;;;21.40;99.90;;;;;;5036546;28;20057;-80
2021/07/27 07:01:50;;;;;;;10.10;7.82;;;21.40;99.90;;;;;;5051903;28;20040;-81
2021/07/27 07:04:15;;;;;;;10.48;7.93;;;21.60;99.90;;;;;;5051735;28;20104;-80
2021/07/27 07:06:41;;;;;;;9.85;8.40;;;21.70;99.90;;;;;;5056325;28;20112;-81
2021/07/27 07:09:07;;;;;;;8.32;7.20;;;21.80;99.90;;;;;;5053050;28;20554;-80
2021/07/27 07:11:33;;;;;;;12.32;8.23;;;21.80;99.90;;;;;;5053074;28;20388;-80
2021/07/27 07:13:58;;;;;;;9.70;7.40;;;21.70;99.90;;;;;;5053786;28;20044;-81
2021/07/27 07:16:24;;;;;;;10.18;7.20;;;21.80;99.90;;;;;;5050334;28;20017;-80
2021/07/27 07:18:50;;;;;;;7.55;6.50;;;21.90;99.90;;;;;;5055977;28;20108;-81
2021/07/27 07:21:16;;;;;;;9.68;7.15;;;22.20;99.90;;;;;;5054119;28;20017;-81
2021/07/27 07:23:41;;;;;;;11.43;7.70;;;22.30;99.90;;;;;;5036393;28;20374;-81
2021/07/27 07:26:08;;;;;;;11.23;7.40;;;22.20;99.90;;;;;;5053867;28;20020;-81
2021/07/27 07:28:35;;;;;;;11.18;7.93;;;22.10;99.90;;;;;;5050578;28;20362;-81
2021/07/27 07:31:01;;;;;;;9.90;7.53;;;22.20;99.90;;;;;;5054691;28;20355;-81
2021/07/27 07:33:27;;;;;;;13.07;7.80;;;22.30;99.90;;;;;;5054460;28;20390;-81
2021/07/27 07:35:52;;;;;;;10.43;7.63;;;22.50;99.90;;;;;;5054824;28;20032;-81
2021/07/27 07:38:18;;;;;;;13.50;7.53;;;22.50;99.90;;;;;;5053790;28;20032;-81
2021/07/27 07:40:44;;;;;;;10.13;7.82;;;22.40;99.90;;;;;;5051213;28;20113;-80
2021/07/27 07:43:09;;;;;;;9.18;7.50;;;22.40;99.90;;;;;;5052589;28;20386;-80
2021/07/27 07:45:36;;;;;;;8.38;7.18;;;22.40;99.90;;;;;;5055632;28;20389;-80
2021/07/27 07:48:02;;;;;;;8.90;7.13;;;22.50;99.90;;;;;;5051982;28;20025;-80
2021/07/27 07:50:29;;;;;;;10.25;8.00;;;22.40;99.90;;;;;;5052277;28;20021;-81
2021/07/27 07:53:02;;;;;;;8.95;6.90;;;22.40;99.90;;;;;;5052988;28;20496;-81
2021/07/27 07:55:29;;;;;;;10.45;7.15;;;22.50;99.90;;;;;;5033930;28;20026;-81
2021/07/27 07:58:00;;;;;;;10.43;7.35;;;22.40;99.90;;;;;;5055855;28;20033;-80
2021/07/27 08:00:26;;;;;;;11.73;7.18;;;22.60;99.90;;;;;;5054156;28;20025;-81
2021/07/27 08:02:52;;;;;;;11.85;7.28;;;22.90;99.90;;;;;;5053257;28;20074;-81
2021/07/27 08:05:21;;;;;;;9.70;6.95;;;22.90;99.90;;;;;;5053733;28;20082;-81
2021/07/27 08:07:47;;;;;;;8.57;6.22;;;23.20;99.90;;;;;;5051672;28;20496;-81
2021/07/27 08:10:14;;;;;;;9.35;6.90;;;23.50;99.90;;;;;;5051705;28;20029;-81
2021/07/27 08:12:41;;;;;;;12.70;7.75;;;23.50;99.90;;;;;;5053334;28;20033;-80
2021/07/27 08:15:07;;;;;;;8.38;6.65;;;23.40;99.90;;;;;;5056811;28;20041;-81
2021/07/27 08:17:33;;;;;;;12.20;7.10;;;23.50;99.90;;;;;;5057171;28;20033;-80
2021/07/27 08:19:59;;;;;;;7.97;6.75;;;23.40;99.90;;;;;;5057740;28;20029;-81
2021/07/27 08:22:25;;;;;;;7.47;6.57;;;23.60;99.90;;;;;;5053300;28;20025;-81
2021/07/27 08:24:51;;;;;;;7.22;6.03;;;23.60;99.90;;;;;;5059228;28;20086;-80
2021/07/27 08:27:16;;;;;;;7.25;5.85;;;23.70;99.90;;;;;;5056017;28;20047;-81
2021/07/27 08:29:42;;;;;;;7.32;5.95;;;23.80;99.90;;;;;;5055539;28;20587;-81
2021/07/27 08:32:08;;;;;;;9.88;6.40;;;23.80;99.90;;;;;;5057338;28;20346;-81
2021/07/27 08:34:35;;;;;;;8.00;5.80;;;24.00;99.90;;;;;;5053692;28;20053;-81
2021/07/27 08:37:01;;;;;;;9.30;6.43;;;24.30;99.90;;;;;;5058074;28;20033;-81
2021/07/27 08:39:26;;;;;;;7.38;6.35;;;24.40;99.90;;;;;;5057573;28;20028;-81
2021/07/27 08:41:54;;;;;;;9.38;6.05;;;24.70;99.90;;;;;;5057284;28;20392;-81
2021/07/27 08:44:20;;;;;;;13.70;6.50;;;24.80;99.90;;;;;;5056927;28;20020;-80
2021/07/27 08:46:46;;;;;;;8.45;6.25;;;24.90;99.90;;;;;;5054323;28;20025;-81
2021/07/27 08:49:15;;;;;;;8.82;6.25;;;24.60;99.90;;;;;;5055455;28;20039;-81
2021/07/27 08:51:43;;;;;;;8.90;6.13;;;24.10;99.90;;;;;;5056783;28;20052;-81
2021/07/27 08:54:09;;;;;;;8.77;6.65;;;24.50;99.90;;;;;;5056570;28;20048;-81
2021/07/27 08:56:46;;;;;;;7.82;6.28;;;24.70;99.90;;;;;;5056365;28;20025;-82
2021/07/27 08:59:12;;;;;;;7.22;6.30;;;24.90;99.90;;;;;;5057036;28;20107;-80
2021/07/27 09:01:38;;;;;;;7.03;6.32;;;25.10;99.90;;;;;;5034925;28;20111;-81
2021/07/27 09:04:03;;;;;;;8.13;6.30;;;25.50;99.90;;;;;;5056385;28;20041;-81
2021/07/27 09:06:29;;;;;;;7.75;6.25;;;25.70;99.90;;;;;;5055911;28;20074;-81
2021/07/27 09:09:11;;;;;;;9.05;6.10;;;25.40;99.90;;;;;;5055435;28;20090;-81
2021/07/27 09:11:47;;;;;;;8.05;5.80;;;25.60;99.90;;;;;;5056498;28;20013;-82
2021/07/27 09:14:15;;;;;;;8.75;6.07;;;25.90;99.90;;;;;;5055629;28;20048;-81
2021/07/27 09:16:45;;;;;;;8.95;6.57;;;26.20;99.90;;;;;;5053828;28;20062;-81
2021/07/27 09:19:11;;;;;;;9.45;6.35;;;26.50;99.90;;;;;;5055153;28;20489;-81
2021/07/27 09:21:37;;;;;;;8.95;5.97;;;26.70;99.90;;;;;;5039530;28;20051;-81
2021/07/27 09:24:03;;;;;;;7.97;6.45;;;26.80;99.90;;;;;;5055417;28;20033;-81
2021/07/27 09:26:29;;;;;;;8.23;6.38;;;27.00;99.90;;;;;;5055454;28;20029;-81
2021/07/27 09:29:04;;;;;;;7.80;6.03;;;27.20;99.90;;;;;;5054916;28;20021;-81
2021/07/27 09:31:31;;;;;;;6.82;6.07;;;27.00;99.90;;;;;;5036096;28;20060;-81
2021/07/27 09:33:57;;;;;;;10.27;6.40;;;27.10;99.90;;;;;;5065102;28;20040;-81
2021/07/27 09:36:27;;;;;;;8.30;6.43;;;27.20;99.90;;;;;;5056617;28;20033;-81
2021/07/27 09:39:03;;;;;;;8.60;6.78;;;27.00;99.90;;;;;;5055978;28;20433;-81
2021/07/27 09:41:30;;;;;;;9.32;6.63;;;26.40;99.90;;;;;;5056057;28;20100;-81
2021/07/27 09:43:58;;;;;;;8.45;6.72;;;26.30;99.90;;;;;;5053377;28;20032;-81
2021/07/27 09:46:24;;;;;;;8.55;6.63;;;26.30;99.90;;;;;;5052044;28;20065;-81
2021/07/27 09:48:51;;;;;;;8.27;6.43;;;26.40;99.90;;;;;;5057115;28;20029;-81
2021/07/27 09:51:17;;;;;;;9.35;6.80;;;26.20;99.90;;;;;;5055733;28;20069;-81
2021/07/27 09:53:45;;;;;;;7.60;6.55;;;25.90;99.90;;;;;;5055633;28;20067;-81
2021/07/27 09:56:11;;;;;;;9.02;6.60;;;25.90;99.90;;;;;;5055442;28;20025;-81
2021/07/27 09:58:40;;;;;;;9.05;6.45;;;26.10;99.90;;;;;;5052284;28;20398;-81
2021/07/27 10:01:05;;;;;;;8.82;6.68;;;26.20;99.90;;;;;;5055995;28;20057;-81
2021/07/27 10:03:35;;;;;;;6.95;6.25;;;26.30;99.90;;;;;;5056078;28;20130;-82
2021/07/27 10:06:03;;;;;;;7.88;6.55;;;26.50;99.90;;;;;;5055441;28;20021;-81
2021/07/27 10:08:38;;;;;;;7.25;6.38;;;26.70;99.90;;;;;;5055894;28;20021;-81
2021/07/27 10:11:06;;;;;;;10.98;6.88;;;26.70;99.90;;;;;;5055358;28;20028;-81
2021/07/27 10:13:34;;;;;;;8.38;6.75;;;26.50;99.90;;;;;;5050856;28;20048;-82
2021/07/27 10:16:00;;;;;;;9.50;7.03;;;26.30;99.90;;;;;;5056594;28;20032;-81
2021/07/27 10:18:32;;;;;;;8.00;7.20;;;26.30;99.90;;;;;;5055974;28;20640;-81
2021/07/27 10:21:23;;;;;;;8.98;6.72;;;26.50;99.90;;;;;;5055076;28;20025;-81
2021/07/27 10:23:49;;;;;;;11.00;6.43;;;26.70;99.90;;;;;;5053770;28;20020;-81
2021/07/27 10:26:28;;;;;;;9.98;6.30;;;26.70;99.90;;;;;;5054990;28;20029;-81
2021/07/27 10:28:56;;;;;;;7.57;6.05;;;26.50;99.90;;;;;;5054082;28;20024;-81
2021/07/27 10:31:45;;;;;;;8.10;6.35;;;26.60;99.90;;;;;;5052045;28;20060;-81
2021/07/27 10:34:12;;;;;;;8.50;6.70;;;26.80;99.90;;;;;;5064747;28;20047;-81
2021/07/27 10:36:40;;;;;;;10.35;7.45;;;27.10;99.90;;;;;;5056279;28;20029;-81
2021/07/27 10:39:10;;;;;;;7.28;6.43;;;27.10;99.90;;;;;;5054998;28;20032;-81
2021/07/27 10:41:43;;;;;;;9.80;6.65;;;27.00;99.90;;;;;;5054717;28;20032;-81
2021/07/27 10:44:11;;;;;;;7.68;6.20;;;27.00;99.90;;;;;;5054603;28;20028;-81
2021/07/27 10:46:39;;;;;;;8.82;6.35;;;27.00;99.90;;;;;;5051256;28;20339;-81
2021/07/27 10:49:05;;;;;;;8.13;6.55;;;26.90;99.90;;;;;;5054761;28;20450;-81
2021/07/27 10:51:37;;;;;;;9.27;6.22;;;27.00;99.90;;;;;;5056105;28;20025;-81
2021/07/27 10:54:04;;;;;;;8.10;6.38;;;27.20;99.90;;;;;;5054226;28;20519;-81
2021/07/27 10:56:31;;;;;;;10.00;6.80;;;27.40;99.90;;;;;;5054100;28;20053;-80
2021/07/27 10:58:58;;;;;;;9.43;6.75;;;27.30;99.90;;;;;;5053961;28;20032;-81
2021/07/27 11:01:30;;;;;;;8.68;6.60;;;27.40;99.90;;;;;;5050413;28;20033;-81
2021/07/27 11:04:17;;;;;;;7.80;6.88;;;27.60;99.90;;;;;;5056195;28;20028;-81
2021/07/27 11:06:43;;;;;;;8.60;7.03;;;27.50;99.90;;;;;;5054625;28;20436;-81
2021/07/27 11:09:12;;;;;;;7.38;6.63;;;27.70;99.90;;;;;;5054147;28;20020;-81
2021/07/27 11:11:49;;;;;;;8.38;6.38;;;27.60;99.90;;;;;;5054183;28;20037;-81
2021/07/27 11:14:22;;;;;;;9.75;6.97;;;28.20;99.90;;;;;;5053871;28;20045;-81
2021/07/27 11:16:48;;;;;;;9.23;5.85;;;28.70;99.90;;;;;;5052404;28;20493;-80
2021/07/27 11:19:28;;;;;;;9.10;6.70;;;28.90;99.90;;;;;;5052662;28;20051;-80
2021/07/27 11:21:56;;;;;;;8.35;6.55;;;29.10;99.90;;;;;;5055972;28;20492;-81
2021/07/27 11:24:23;;;;;;;9.07;6.28;;;29.70;99.90;;;;;;5053764;28;20504;-81
2021/07/27 11:26:51;;;;;;;8.75;6.85;;;30.80;99.90;;;;;;5053600;28;20112;-82
2021/07/27 11:29:18;;;;;;;7.13;6.50;;;30.80;99.90;;;;;;5054747;28;20034;-81
2021/07/27 11:31:48;;;;;;;8.77;6.68;;;30.60;99.90;;;;;;5051651;28;20037;-81
2021/07/27 11:34:26;;;;;;;7.10;6.22;;;30.30;99.90;;;;;;5051721;28;20029;-81
2021/07/27 11:36:52;;;;;;;7.50;6.00;;;30.20;99.90;;;;;;5055160;28;20055;-81
2021/07/27 11:39:18;;;;;;;6.75;6.05;;;30.40;99.90;;;;;;5053711;28;20024;-80
2021/07/27 11:41:44;;;;;;;9.57;6.40;;;30.50;99.90;;;;;;5052606;28;20392;-81
2021/07/27 11:44:10;;;;;;;7.70;6.72;;;31.40;99.90;;;;;;5052238;28;20455;-81
2021/07/27 11:46:35;;;;;;;9.23;7.07;;;35.80;99.90;;;;;;5050076;28;20062;-81
2021/07/27 11:49:07;;;;;;;8.23;6.30;;;38.00;99.90;;;;;;5054838;28;20037;-80
2021/07/27 11:51:33;;;;;;;7.80;6.07;;;38.40;99.90;;;;;;5053634;28;20086;-81
2021/07/27 11:53:59;;;;;;;8.77;6.63;;;39.30;99.90;;;;;;5053249;28;20516;-80
2021/07/27 11:56:26;;;;;;;9.48;7.05;;;40.00;99.90;;;;;;5053625;28;20036;-81
2021/07/27 11:59:06;;;;;;;7.03;6.35;;;41.50;99.90;;;;;;5051993;28;20032;-81
2021/07/27 12:01:40;;;;;;;7.10;6.10;;;41.80;99.90;;;;;;5016411;28;20037;-81
2021/07/27 12:04:06;;;;;;;7.13;6.35;;;42.30;99.90;;;;;;5054125;28;20013;-81
2021/07/27 12:06:32;;;;;;;7.25;6.20;;;42.80;99.90;;;;;;5036860;28;20033;-81
2021/07/27 12:09:01;;;;;;;9.45;6.75;;;40.80;99.90;;;;;;5053195;28;20051;-81
2021/07/27 12:11:27;;;;;;;7.15;6.40;;;39.00;99.90;;;;;;5053490;28;20485;-81
2021/07/27 12:13:53;;;;;;;8.43;6.80;;;40.90;99.90;;;;;;5051950;28;20044;-82
2021/07/27 12:16:19;;;;;;;6.82;5.93;;;42.50;99.90;;;;;;5050647;28;20536;-82
2021/07/27 12:18:44;;;;;;;7.93;6.22;;;42.30;99.90;;;;;;5055900;28;20414;-81
2021/07/27 12:21:10;;;;;;;7.40;6.00;;;41.90;99.90;;;;;;5052043;28;20021;-82
2021/07/27 12:23:36;;;;;;;7.50;6.57;;;40.30;99.90;;;;;;5051956;28;20025;-81
2021/07/27 12:26:05;;;;;;;7.35;5.90;;;39.00;99.90;;;;;;5053168;28;20029;-81
2021/07/27 12:28:31;;;;;;;6.85;5.85;;;36.70;99.90;;;;;;5033607;28;20032;-81
2021/07/27 12:30:57;;;;;;;7.60;6.15;;;34.70;99.90;;;;;;5063010;28;20028;-81
2021/07/27 12:33:23;;;;;;;8.43;6.47;;;33.70;99.90;;;;;;5054049;28;20086;-81
2021/07/27 12:35:48;;;;;;;7.20;6.50;;;33.70;99.90;;;;;;5053131;28;20044;-81
2021/07/27 12:38:14;;;;;;;7.47;6.00;;;34.10;99.90;;;;;;5053026;28;20032;-81
2021/07/27 12:40:40;;;;;;;7.45;6.55;;;34.10;99.90;;;;;;5032445;28;20021;-82
2021/07/27 12:43:06;;;;;;;6.75;5.88;;;34.20;99.90;;;;;;5053812;28;20052;-81
2021/07/27 12:45:33;;;;;;;8.27;6.35;;;34.70;99.90;;;;;;5053944;28;20053;-81
2021/07/27 12:48:01;;;;;;;11.00;6.57;;;38.60;99.90;;;;;;5053619;28;20029;-81
2021/07/27 12:50:27;;;;;;;6.40;5.80;;;40.50;99.90;;;;;;5053425;28;20048;-81
2021/07/27 12:52:52;;;;;;;10.40;5.70;;;41.80;99.90;;;;;;5051162;28;20527;-82
2021/07/27 12:55:18;;;;;;;8.75;5.95;;;42.30;99.90;;;;;;5032915;28;20023;-81
2021/07/27 12:57:44;;;;;;;7.18;6.47;;;41.00;99.90;;;;;;5055048;28;20554;-81
2021/07/27 13:00:10;;;;;;;6.43;5.55;;;39.20;99.90;;;;;;5052036;28;20021;-82
2021/07/27 13:02:36;;;;;;;7.90;5.88;;;38.40;99.90;;;;;;5055064;28;20032;-82
2021/07/27 13:05:02;;;;;;;7.10;5.97;;;39.30;99.90;;;;;;5039206;28;20025;-82
2021/07/27 13:07:28;;;;;;;7.22;6.03;;;40.60;99.90;;;;;;5052401;28;20120;-82
2021/07/27 13:09:56;;;;;;;10.23;5.10;;;42.40;99.90;;;;;;5058522;28;20103;-81
2021/07/27 13:12:22;;;;;;;6.55;5.57;;;40.10;99.90;;;;;;5056341;28;20537;-82